C16 weather

Frasca Field
Urbana, Illinois, United States

Public forecast

Using degrees Fahrenheit for public forecast. Weather courtesy of forecast.io.

Closest aviation weather report (METAR) to Frasca Field

Closest report is University of Illinois Willard Airport, 7.4 nm (13.7 km) SSW. Retrieved 2019/12/08 09:53 UTC (37 minutes ago):

KCMI 080953Z AUTO 17013KT 10SM CLR 01/M02 A3009 RMK AO2 SLP194 T00061017

Closest aviation forecast (TAF) to Frasca Field

Closest forecast is University of Illinois Willard Airport, 7.4 nm (13.7 km) SSW. Retrieved 2019/12/08 06:24 UTC (4 hours ago):

TAF KCMI 080523Z 0806/0906 15008KT P6SM FEW250 FM080800 19011KT P6SM OVC018 FM081200 20012KT P6SM OVC012 FM081700 20014G24KT P6SM SCT025 BKN180 FM082300 18011KT P6SM SCT012 BKN018